Time;durP1;ratioP1;P1;durP2;ratioP2;P2;SDS_P1;SDS_P2;PMS_P1;PMS_P2;Temp;Humidity;BMP_temperature;BMP_pressure;BME280_temperature;BME280_humidity;BME280_pressure;Samples;Min_cycle;Max_cycle;Signal;HPM_P1;HPM_P2
2023/06/30 08:36:24;;;;;;;;;5.00;3.75;;;;;23.96;37.81;101130.44;4919239;28;45410;-50
2023/06/30 08:38:49;;;;;;;;;10.00;3.25;;;;;23.99;38.04;101139.97;4921310;28;45976;-50
2023/06/30 08:41:15;;;;;;;;;5.00;3.25;;;;;23.98;37.22;101139.09;4920939;28;57963;-49
2023/06/30 08:43:41;;;;;;;;;4.00;3.25;;;;;24.00;37.44;101139.88;4923674;28;45306;-46
2023/06/30 08:46:07;;;;;;;;;4.00;3.25;;;;;24.02;37.40;101135.31;4929318;28;45239;-52
2023/06/30 08:48:32;;;;;;;;;2.25;2.25;;;;;24.01;37.37;101128.31;4931657;28;46018;-47
2023/06/30 08:50:59;;;;;;;;;4.25;4.00;;;;;24.05;36.94;101126.31;4932255;28;45480;-52
2023/06/30 08:53:27;;;;;;;;;4.00;4.00;;;;;24.07;36.96;101132.38;4928530;28;45251;-49
2023/06/30 08:55:54;;;;;;;;;3.00;3.00;;;;;24.07;37.09;101121.78;4934869;28;44961;-48
2023/06/30 08:58:20;;;;;;;;;3.00;3.00;;;;;24.07;36.30;101117.34;4936462;28;46542;-51
2023/06/30 09:00:45;;;;;;;;;3.00;3.00;;;;;24.08;36.36;101119.06;4937495;28;45256;-51
2023/06/30 09:03:11;;;;;;;;;3.50;3.00;;;;;24.08;36.54;101119.06;4927974;28;45358;-50
2023/06/30 09:05:39;;;;;;;;;1.00;1.00;;;;;24.09;36.08;101115.41;4931801;28;52578;-51
2023/06/30 09:08:13;;;;;;;;;3.75;3.00;;;;;24.07;36.17;101114.69;4937747;28;46299;-51
2023/06/30 09:10:41;;;;;;;;;4.00;2.00;;;;;24.11;36.31;101106.53;4933763;28;45521;-54
2023/06/30 09:13:08;;;;;;;;;2.75;2.75;;;;;24.09;35.79;101109.28;4926666;28;45353;-54
2023/06/30 09:15:34;;;;;;;;;5.00;3.00;;;;;24.11;35.75;101111.81;4937443;28;45147;-50
2023/06/30 09:17:59;;;;;;;;;1.00;1.00;;;;;24.10;35.51;101100.41;4930653;28;46586;-48
2023/06/30 09:20:25;;;;;;;;;3.00;3.00;;;;;24.14;35.57;101111.63;4927130;28;56265;-48
2023/06/30 09:22:50;;;;;;;;;2.33;2.33;;;;;24.12;35.80;101100.28;4935808;28;60535;-51
2023/06/30 09:25:25;;;;;;;;;2.00;2.00;;;;;24.14;35.51;101101.03;4929056;28;45242;-52
2023/06/30 09:27:50;;;;;;;;;2.50;2.50;;;;;24.16;35.97;101096.50;4925338;28;46903;-50
2023/06/30 09:30:16;;;;;;;;;4.50;2.00;;;;;24.17;35.49;101101.69;4922145;28;45339;-52
2023/06/30 09:32:42;;;;;;;;;2.00;2.00;;;;;24.19;35.52;101096.31;4919665;28;45428;-50
2023/06/30 09:35:08;;;;;;;;;3.00;3.00;;;;;24.18;35.93;101095.44;4919863;28;45270;-51
2023/06/30 09:37:44;;;;;;;;;2.75;2.25;;;;;24.20;35.76;101103.25;4919759;28;46281;-52
2023/06/30 09:40:23;;;;;;;;;3.00;3.00;;;;;24.20;35.46;101103.25;4920584;28;45500;-53
2023/06/30 09:42:53;;;;;;;;;4.00;3.00;;;;;24.21;35.47;101105.81;4920019;28;45284;-48
2023/06/30 09:45:21;;;;;;;;;4.25;3.00;;;;;24.20;35.77;101090.03;4920336;28;45629;-52
2023/06/30 09:47:51;;;;;;;;;3.25;3.25;;;;;24.21;35.48;101084.66;4919955;28;45330;-48
2023/06/30 09:50:24;;;;;;;;;2.00;2.00;;;;;24.26;35.90;101094.94;4919300;28;45682;-48
2023/06/30 09:52:50;;;;;;;;;2.75;2.75;;;;;24.26;35.58;101097.56;4917581;28;45445;-51
2023/06/30 09:55:16;;;;;;;;;3.25;3.25;;;;;24.26;36.11;101092.28;4919795;28;45442;-48
2023/06/30 09:57:43;;;;;;;;;4.00;2.75;;;;;24.26;35.97;101086.97;4919178;28;45639;-47
2023/06/30 10:00:16;;;;;;;;;2.75;2.75;;;;;24.27;35.49;101086.03;4919829;28;45429;-47
2023/06/30 10:02:42;;;;;;;;;4.25;2.75;;;;;24.26;35.76;101084.31;4919937;28;45326;-50
2023/06/30 10:05:08;;;;;;;;;4.75;3.00;;;;;24.28;35.88;101089.50;4923196;28;45456;-50
2023/06/30 10:07:34;;;;;;;;;4.75;3.25;;;;;24.29;35.93;101088.56;4933906;28;46076;-48
2023/06/30 10:10:02;;;;;;;;;4.50;3.00;;;;;24.30;36.06;101088.47;4938728;28;45948;-49
2023/06/30 10:12:33;;;;;;;;;3.00;3.00;;;;;24.29;35.51;101078.84;4931313;28;45343;-52
2023/06/30 10:14:59;;;;;;;;;3.00;2.00;;;;;24.30;35.91;101082.31;4941403;28;45295;-50
2023/06/30 10:17:25;;;;;;;;;5.00;3.25;;;;;24.32;35.88;101075.94;4923653;28;46191;-49
2023/06/30 10:19:51;;;;;;;;;3.25;3.00;;;;;24.34;35.41;101079.34;4922358;28;45497;-48
2023/06/30 10:22:16;;;;;;;;;2.00;2.00;;;;;24.35;35.20;101075.75;4922087;28;45445;-52
2023/06/30 10:24:43;;;;;;;;;3.50;3.00;;;;;24.37;35.48;101073.00;4919923;28;45548;-53
2023/06/30 10:27:12;;;;;;;;;4.00;4.00;;;;;24.37;35.41;101075.63;4920201;28;46243;-48
2023/06/30 10:29:38;;;;;;;;;3.00;3.00;;;;;24.38;35.37;101069.38;4921797;28;45348;-46
2023/06/30 10:32:04;;;;;;;;;3.25;3.25;;;;;24.37;35.92;101065.03;4921745;28;45421;-53
2023/06/30 10:34:30;;;;;;;;;4.00;2.00;;;;;24.39;35.37;101069.31;4921936;28;45615;-52
2023/06/30 10:36:56;;;;;;;;;2.00;2.00;;;;;24.38;35.43;101072.03;4921568;28;46300;-50
2023/06/30 10:39:22;;;;;;;;;4.00;4.00;;;;;24.38;35.66;101078.19;4923237;28;45422;-52
2023/06/30 10:41:48;;;;;;;;;2.75;2.75;;;;;24.42;35.48;101072.72;4936552;28;44791;-49
2023/06/30 10:44:14;;;;;;;;;4.00;4.00;;;;;24.43;35.63;101075.25;4941900;28;44817;-52
2023/06/30 10:46:42;;;;;;;;;3.25;2.75;;;;;24.45;35.95;101077.78;4945349;28;45199;-48
2023/06/30 10:49:08;;;;;;;;;3.00;3.00;;;;;24.45;35.81;101073.34;4944395;28;44978;-51
2023/06/30 10:51:37;;;;;;;;;3.00;3.00;;;;;24.44;36.19;101070.78;4942871;28;45098;-53
2023/06/30 10:54:03;;;;;;;;;4.00;2.00;;;;;24.47;35.91;101081.16;4940599;28;44907;-52
2023/06/30 10:56:29;;;;;;;;;3.50;3.50;;;;;24.48;36.35;101078.41;4934208;28;45473;-52
2023/06/30 10:58:58;;;;;;;;;4.00;4.00;;;;;24.49;35.48;101073.97;4927638;28;45724;-51
2023/06/30 11:01:26;;;;;;;;;4.50;3.50;;;;;24.49;35.65;101080.09;4923159;28;45457;-51
2023/06/30 11:03:57;;;;;;;;;3.00;3.00;;;;;24.50;35.73;101078.31;4921186;28;45385;-51
2023/06/30 11:06:24;;;;;;;;;3.00;3.00;;;;;24.50;36.03;101075.66;4921110;28;45739;-52
2023/06/30 11:09:02;;;;;;;;;4.50;3.00;;;;;24.50;36.17;101078.31;4921042;28;45409;-55
2023/06/30 11:11:27;;;;;;;;;2.50;2.50;;;;;24.51;35.80;101077.38;4921666;28;45440;-52
2023/06/30 11:14:06;;;;;;;;;3.00;3.00;;;;;24.49;35.91;101071.31;4921777;28;45575;-51
2023/06/30 11:17:01;;;;;;;;;3.75;3.75;;;;;24.51;35.76;101069.41;4921279;28;46151;-53
2023/06/30 11:19:27;;;;;;;;;3.00;3.00;;;;;24.52;35.89;101066.66;4922539;28;45367;-52
2023/06/30 11:22:20;;;;;;;;;2.75;2.75;;;;;24.55;35.55;101068.22;4942009;28;46110;-51
2023/06/30 11:24:47;;;;;;;;;6.00;4.00;;;;;24.50;36.11;101065.06;4936727;28;45214;-51
2023/06/30 11:27:12;;;;;;;;;3.75;3.00;;;;;24.52;35.97;101068.47;4925052;28;46298;-51
2023/06/30 11:29:39;;;;;;;;;4.25;3.25;;;;;24.52;35.51;101065.81;4942782;28;44740;-50
2023/06/30 11:32:05;;;;;;;;;3.50;3.50;;;;;24.51;35.48;101066.78;4938041;28;45262;-52
2023/06/30 11:34:31;;;;;;;;;3.00;3.00;;;;;24.52;35.41;101071.13;4921314;28;45624;-53
2023/06/30 11:36:56;;;;;;;;;5.00;3.25;;;;;24.52;35.62;101065.81;4936144;28;45432;-54
2023/06/30 11:39:21;;;;;;;;;3.25;3.00;;;;;24.51;35.61;101066.78;4937658;28;45355;-47
2023/06/30 11:41:47;;;;;;;;;5.00;4.00;;;;;24.53;35.72;101059.53;4937732;28;45129;-52
2023/06/30 11:44:13;;;;;;;;;3.00;3.00;;;;;24.53;35.79;101048.94;4926751;28;45403;-46
2023/06/30 11:46:39;;;;;;;;;3.00;3.00;;;;;24.52;35.76;101047.28;4922074;28;46571;-50
2023/06/30 11:49:04;;;;;;;;;3.00;3.00;;;;;24.55;35.87;101054.97;4930526;28;45246;-50
2023/06/30 11:51:31;;;;;;;;;3.50;3.50;;;;;24.56;36.30;101040.78;4939546;28;45232;-49
2023/06/30 11:53:57;;;;;;;;;3.00;3.00;;;;;24.57;36.01;101045.13;4933249;28;45313;-53
2023/06/30 11:56:22;;;;;;;;;6.50;3.00;;;;;24.58;36.04;101041.53;4935022;28;46106;-54
2023/06/30 11:58:52;;;;;;;;;3.00;3.00;;;;;24.58;35.32;101046.84;4945379;28;44741;-47
2023/06/30 12:01:19;;;;;;;;;4.00;3.50;;;;;24.57;35.45;101045.13;4939993;28;45334;-52
2023/06/30 12:03:45;;;;;;;;;4.00;4.00;;;;;24.59;35.93;101042.38;4936203;28;45470;-47
2023/06/30 12:06:10;;;;;;;;;4.25;3.00;;;;;24.60;35.50;101038.75;4933514;28;45322;-55
2023/06/30 12:08:38;;;;;;;;;4.00;4.00;;;;;24.60;35.85;101034.34;4937491;28;45325;-54
2023/06/30 12:11:06;;;;;;;;;3.75;3.00;;;;;24.60;35.97;101036.97;4933424;28;45322;-48
2023/06/30 12:13:32;;;;;;;;;4.25;4.00;;;;;24.60;35.13;101026.38;4927425;28;45321;-47
2023/06/30 12:15:57;;;;;;;;;3.00;3.00;;;;;24.58;35.72;101022.97;4926797;28;46324;-50
2023/06/30 12:18:36;;;;;;;;;3.00;3.00;;;;;24.61;35.11;101020.13;4925209;28;45235;-47
2023/06/30 12:21:03;;;;;;;;;3.50;3.00;;;;;24.61;35.49;101009.53;4921364;28;45385;-53
2023/06/30 12:23:28;;;;;;;;;2.50;2.50;;;;;24.60;35.58;100999.88;4920224;28;45421;-50
2023/06/30 12:25:56;;;;;;;;;4.25;2.25;;;;;24.62;35.53;101003.28;4919417;28;46538;-50
2023/06/30 12:28:22;;;;;;;;;2.00;2.00;;;;;24.65;35.45;101005.69;4918964;28;46062;-50
2023/06/30 12:30:47;;;;;;;;;3.50;3.50;;;;;24.65;35.29;100996.91;4920230;28;45453;-49
2023/06/30 12:33:19;;;;;;;;;3.25;3.25;;;;;24.64;35.86;100982.78;4921491;28;45436;-50
2023/06/30 12:35:46;;;;;;;;;2.00;2.00;;;;;24.66;35.56;100988.84;4920912;28;46576;-51
2023/06/30 12:38:12;;;;;;;;;3.00;3.00;;;;;24.68;35.59;100988.75;4920587;28;45352;-51
2023/06/30 12:40:38;;;;;;;;;3.00;3.00;;;;;24.67;35.67;100987.03;4922756;28;45341;-50
2023/06/30 12:43:04;;;;;;;;;2.25;2.25;;;;;24.67;35.33;100973.78;4925533;28;45324;-54
2023/06/30 12:45:29;;;;;;;;;5.00;2.00;;;;;24.69;35.07;100975.41;4928440;28;46084;-50
2023/06/30 12:47:54;;;;;;;;;3.00;3.00;;;;;24.70;34.68;100979.75;4921764;28;45272;-53
2023/06/30 12:50:20;;;;;;;;;3.00;3.00;;;;;24.68;34.81;100973.72;4931076;28;44621;-47
2023/06/30 12:52:45;;;;;;;;;1.75;1.75;;;;;24.73;35.38;100988.44;4942163;28;44776;-49
2023/06/30 12:55:12;;;;;;;;;2.00;2.00;;;;;24.72;35.44;100984.94;4923349;28;45765;-50
2023/06/30 12:57:38;;;;;;;;;4.00;2.50;;;;;24.74;34.98;100979.53;4931467;28;45235;-49
2023/06/30 13:00:13;;;;;;;;;2.00;2.00;;;;;24.73;35.46;100969.91;4930353;28;45365;-48
2023/06/30 13:02:38;;;;;;;;;2.00;2.00;;;;;24.75;35.48;100963.53;4926568;28;45541;-50
2023/06/30 13:05:05;;;;;;;;;2.25;2.25;;;;;24.73;35.41;100962.78;4926896;28;46126;-53
2023/06/30 13:07:34;;;;;;;;;3.00;2.75;;;;;24.76;35.14;100967.88;4941110;28;45377;-48
2023/06/30 13:10:00;;;;;;;;;2.75;2.00;;;;;24.76;35.33;100959.06;4941495;28;44694;-51
2023/06/30 13:12:26;;;;;;;;;2.00;2.00;;;;;24.78;35.51;100960.66;4942557;28;44811;-50
2023/06/30 13:14:53;;;;;;;;;2.25;2.25;;;;;24.79;35.21;100964.13;4942310;28;46222;-49
2023/06/30 13:17:20;;;;;;;;;2.00;2.00;;;;;24.76;35.33;100951.97;4942489;28;45017;-49
2023/06/30 13:19:45;;;;;;;;;3.50;2.00;;;;;24.80;34.96;100960.53;4941118;28;45322;-48
2023/06/30 13:22:12;;;;;;;;;2.25;2.25;;;;;24.78;34.96;100951.84;4937271;28;45279;-50
2023/06/30 13:24:37;;;;;;;;;3.00;2.50;;;;;24.81;35.13;100962.22;4923144;28;47388;-50
2023/06/30 13:27:04;;;;;;;;;1.75;1.75;;;;;24.81;34.88;100964.88;4918779;28;46998;-47
2023/06/30 13:29:29;;;;;;;;;4.00;1.75;;;;;24.81;35.07;100956.94;4919500;28;45288;-46
2023/06/30 13:31:55;;;;;;;;;5.00;2.00;;;;;24.80;34.52;100960.53;4919437;28;45413;-50
2023/06/30 13:34:20;;;;;;;;;2.50;2.50;;;;;24.79;34.55;100949.09;4920404;28;47086;-47
2023/06/30 13:36:45;;;;;;;;;2.00;2.00;;;;;24.81;35.20;100947.16;4937550;28;45223;-49
2023/06/30 13:39:10;;;;;;;;;1.50;1.50;;;;;24.82;34.58;100940.91;4933125;28;44724;-50
2023/06/30 13:41:36;;;;;;;;;2.25;2.00;;;;;24.83;35.06;100944.41;4927116;28;47108;-47
2023/06/30 13:44:03;;;;;;;;;3.25;2.00;;;;;24.84;34.89;100935.50;4940249;28;45134;-49
2023/06/30 13:46:28;;;;;;;;;2.25;2.25;;;;;24.85;34.13;100942.50;4926849;28;45389;-48
2023/06/30 13:48:53;;;;;;;;;2.75;1.75;;;;;24.84;33.90;100940.81;4933789;28;45357;-48
2023/06/30 13:51:20;;;;;;;;;1.00;1.00;;;;;24.83;34.50;100941.75;4931271;28;45329;-48
2023/06/30 13:53:46;;;;;;;;;1.75;1.00;;;;;24.84;34.01;100933.69;4934022;28;46691;-47
2023/06/30 13:56:11;;;;;;;;;4.00;2.00;;;;;24.85;34.27;100932.75;4934109;28;49267;-49
2023/06/30 13:58:36;;;;;;;;;3.00;2.00;;;;;24.85;33.94;100934.56;4935344;28;45364;-51
2023/06/30 14:01:02;;;;;;;;;1.00;1.00;;;;;24.85;34.05;100932.75;4931111;28;45300;-52
2023/06/30 14:03:27;;;;;;;;;2.00;1.75;;;;;24.87;33.53;100943.22;4932466;28;47214;-50
2023/06/30 14:05:52;;;;;;;;;1.00;1.00;;;;;24.86;33.57;100936.22;4928688;28;46112;-48
2023/06/30 14:08:19;;;;;;;;;1.00;1.00;;;;;24.88;33.75;100942.25;4928474;28;45380;-50
2023/06/30 14:10:45;;;;;;;;;3.50;1.75;;;;;24.89;33.82;100940.47;4935725;28;45592;-54
2023/06/30 14:13:11;;;;;;;;;1.25;1.00;;;;;24.89;33.85;100933.34;4935885;28;45943;-50
2023/06/30 14:15:37;;;;;;;;;1.75;1.75;;;;;24.89;33.69;100933.34;4935426;28;45334;-54
2023/06/30 14:18:03;;;;;;;;;1.00;1.00;;;;;24.88;33.87;100930.81;4930831;28;45255;-50
2023/06/30 14:20:29;;;;;;;;;1.75;1.75;;;;;24.90;33.61;100928.91;4923417;28;45342;-49
2023/06/30 14:22:55;;;;;;;;;2.00;2.00;;;;;24.91;33.49;100925.31;4923458;28;46022;-49
2023/06/30 14:25:22;;;;;;;;;2.50;2.00;;;;;24.90;33.64;100927.09;4925675;28;44682;-50
2023/06/30 14:27:49;;;;;;;;;2.00;2.00;;;;;24.91;33.43;100923.50;4924826;28;45464;-55
2023/06/30 14:30:14;;;;;;;;;2.25;2.00;;;;;24.89;33.65;100912.16;4926433;28;45395;-54
2023/06/30 14:32:40;;;;;;;;;2.00;2.00;;;;;24.92;33.65;100917.22;4926216;28;45354;-53
2023/06/30 14:35:05;;;;;;;;;2.00;2.00;;;;;24.92;33.41;100908.41;4928161;28;45346;-53
2023/06/30 14:37:30;;;;;;;;;1.00;1.00;;;;;24.92;33.76;100903.97;4929576;28;45204;-50
2023/06/30 14:39:56;;;;;;;;;2.00;2.00;;;;;24.90;33.08;100900.59;4928589;28;46723;-45
2023/06/30 14:42:21;;;;;;;;;2.75;1.00;;;;;24.92;33.16;100898.69;4928158;28;45985;-48
2023/06/30 14:44:47;;;;;;;;;1.25;1.00;;;;;24.93;33.20;100899.50;4924336;28;45342;-53
2023/06/30 14:47:13;;;;;;;;;1.25;1.25;;;;;24.92;33.46;100896.03;4931465;28;45350;-48
2023/06/30 14:49:38;;;;;;;;;2.00;2.00;;;;;24.93;33.00;100887.13;4942153;28;44939;-52
2023/06/30 14:52:04;;;;;;;;;1.00;1.00;;;;;24.94;33.31;100872.91;4928521;28;45368;-51
2023/06/30 14:54:29;;;;;;;;;2.75;1.00;;;;;24.94;32.97;100887.94;4921966;28;45346;-47
2023/06/30 14:56:55;;;;;;;;;1.00;1.00;;;;;24.94;32.73;100893.25;4922055;28;45505;-49
2023/06/30 14:59:20;;;;;;;;;3.00;1.75;;;;;24.93;33.17;100881.81;4923692;28;45549;-51
2023/06/30 15:01:45;;;;;;;;;1.00;1.00;;;;;24.92;33.42;100879.25;4933559;28;47182;-47
2023/06/30 15:04:10;;;;;;;;;1.50;1.50;;;;;24.94;33.46;100880.84;4929976;28;45345;-52
2023/06/30 15:06:36;;;;;;;;;1.00;1.00;;;;;24.92;32.42;100876.59;4921660;28;46150;-50
2023/06/30 15:09:01;;;;;;;;;1.00;1.00;;;;;24.95;32.44;100885.19;4922546;28;45623;-48
2023/06/30 15:11:27;;;;;;;;;1.25;1.25;;;;;24.95;32.58;100885.19;4921714;28;46144;-48
2023/06/30 15:13:52;;;;;;;;;1.00;1.00;;;;;24.93;32.25;100881.81;4922175;28;45314;-48
2023/06/30 15:16:18;;;;;;;;;2.50;1.00;;;;;24.95;32.25;100879.91;4922060;28;45501;-48
2023/06/30 15:18:43;;;;;;;;;1.00;1.00;;;;;24.96;32.20;100897.50;4922048;28;45239;-48
2023/06/30 15:21:08;;;;;;;;;0.25;0.25;;;;;24.94;32.40;100883.50;4921972;28;45293;-50
2023/06/30 15:23:34;;;;;;;;;1.00;1.00;;;;;24.96;32.34;100886.03;4921531;28;45335;-50
2023/06/30 15:25:59;;;;;;;;;0.25;0.25;;;;;24.95;32.65;100874.59;4921299;28;50470;-50
2023/06/30 15:28:24;;;;;;;;;1.00;1.00;;;;;24.94;32.33;100867.59;4922383;28;45209;-48
2023/06/30 15:30:49;;;;;;;;;1.00;1.00;;;;;24.96;32.07;100878.09;4921394;28;45876;-46
2023/06/30 15:33:15;;;;;;;;;1.00;0.00;;;;;24.96;31.78;100876.28;4921565;28;45263;-49
2023/06/30 15:35:40;;;;;;;;;1.00;1.00;;;;;24.95;32.37;100869.28;4920337;28;46198;-48
2023/06/30 15:38:06;;;;;;;;;1.00;1.00;;;;;24.97;31.54;100871.81;4921366;28;45160;-47
2023/06/30 15:40:32;;;;;;;;;2.25;0.00;;;;;24.94;31.72;100859.66;4919937;28;46786;-49
2023/06/30 15:42:58;;;;;;;;;2.00;1.00;;;;;24.95;31.15;100857.81;4920642;28;45374;-52
2023/06/30 15:45:23;;;;;;;;;2.00;1.00;;;;;24.96;31.21;100871.00;4924849;28;45332;-47
2023/06/30 15:47:49;;;;;;;;;1.00;1.00;;;;;24.96;31.26;100871.00;4933430;28;50265;-54
2023/06/30 15:50:14;;;;;;;;;1.50;1.00;;;;;24.96;31.44;100865.69;4929776;28;46064;-52
2023/06/30 15:52:39;;;;;;;;;0.25;0.25;;;;;24.96;31.21;100864.81;4928046;28;45330;-52
2023/06/30 15:55:15;;;;;;;;;1.00;1.00;;;;;24.96;31.81;100863.03;4930003;28;45428;-53
2023/06/30 15:57:41;;;;;;;;;0.00;0.00;;;;;24.95;31.45;100858.69;4942041;28;44800;-52
2023/06/30 16:00:08;;;;;;;;;1.00;1.00;;;;;24.96;31.49;100857.72;4923867;28;46226;-49
2023/06/30 16:02:35;;;;;;;;;0.25;0.25;;;;;24.96;31.90;100856.88;4921660;28;45876;-48
2023/06/30 16:05:00;;;;;;;;;1.75;1.00;;;;;24.96;31.60;100851.56;4921712;28;45311;-49
2023/06/30 16:07:26;;;;;;;;;1.50;0.50;;;;;24.95;31.15;100842.78;4921787;28;45307;-51
2023/06/30 16:09:51;;;;;;;;;0.75;0.75;;;;;24.96;31.33;100838.31;4921612;28;46537;-47
2023/06/30 16:12:16;;;;;;;;;1.00;1.00;;;;;24.96;31.84;100839.19;4919868;28;50120;-50
2023/06/30 16:14:42;;;;;;;;;1.00;1.00;;;;;24.96;31.76;100847.13;4922434;28;45365;-52
2023/06/30 16:17:07;;;;;;;;;1.00;1.00;;;;;24.94;31.54;100835.78;4923859;28;45228;-50
2023/06/30 16:19:32;;;;;;;;;2.50;2.00;;;;;24.94;31.51;100834.91;4922918;28;46235;-46
2023/06/30 16:21:58;;;;;;;;;0.00;0.00;;;;;24.96;32.04;100835.66;4925375;28;59650;-50
2023/06/30 16:24:23;;;;;;;;;1.00;1.00;;;;;24.96;32.00;100833.88;4923859;28;56203;-49
2023/06/30 16:26:48;;;;;;;;;1.00;1.00;;;;;24.97;31.83;100834.69;4927936;28;45519;-49
2023/06/30 16:29:13;;;;;;;;;1.50;1.50;;;;;24.97;31.77;100830.22;4937761;28;46988;-53
2023/06/30 16:31:39;;;;;;;;;1.00;1.00;;;;;24.97;31.93;100824.94;4941148;28;45497;-50
2023/06/30 16:34:04;;;;;;;;;1.00;1.00;;;;;24.96;31.22;100817.97;4939430;28;47081;-53
2023/06/30 16:36:32;;;;;;;;;0.00;0.00;;;;;24.96;31.31;100815.31;4938510;28;48255;-46
2023/06/30 16:38:58;;;;;;;;;1.00;1.00;;;;;24.98;31.38;100815.19;4938677;28;45303;-50
2023/06/30 16:41:26;;;;;;;;;1.25;1.25;;;;;24.98;31.47;100804.59;4927517;28;45331;-53
2023/06/30 16:43:51;;;;;;;;;2.00;1.00;;;;;24.98;32.01;100808.06;4925817;28;45480;-55
2023/06/30 16:46:16;;;;;;;;;1.00;1.00;;;;;24.98;32.06;100799.28;4935803;28;48164;-52
2023/06/30 16:48:42;;;;;;;;;1.00;1.00;;;;;24.96;31.56;100795.88;4924266;28;47026;-53
2023/06/30 16:51:08;;;;;;;;;3.00;1.00;;;;;24.96;32.14;100793.25;4923349;28;45322;-53
2023/06/30 16:53:33;;;;;;;;;0.00;0.00;;;;;24.99;32.14;100798.31;4920871;28;45370;-47
2023/06/30 16:56:00;;;;;;;;;2.00;2.00;;;;;24.98;31.51;100794.81;4920675;28;45334;-47
2023/06/30 16:58:26;;;;;;;;;2.00;2.00;;;;;24.98;31.80;100797.47;4921000;28;47401;-52
2023/06/30 17:00:51;;;;;;;;;2.25;2.00;;;;;24.99;32.19;100793.84;4920821;28;45376;-45
2023/06/30 17:03:16;;;;;;;;;3.00;3.00;;;;;24.99;32.18;100796.50;4924203;28;45911;-50
2023/06/30 17:05:41;;;;;;;;;3.25;3.00;;;;;24.97;31.67;100787.81;4925910;28;45480;-50
2023/06/30 17:08:07;;;;;;;;;3.75;3.00;;;;;24.98;32.20;100784.19;4923771;28;61887;-49
2023/06/30 17:10:32;;;;;;;;;4.00;3.00;;;;;24.99;31.65;100783.25;4925647;28;50186;-48
2023/06/30 17:12:58;;;;;;;;;3.00;3.00;;;;;24.99;31.79;100775.28;4929781;28;45719;-50
2023/06/30 17:15:23;;;;;;;;;2.50;2.50;;;;;24.99;32.12;100785.91;4930208;28;45320;-51
2023/06/30 17:17:48;;;;;;;;;4.50;4.00;;;;;25.00;31.85;100784.94;4928888;28;53739;-54
2023/06/30 17:20:14;;;;;;;;;3.00;3.00;;;;;25.00;32.34;100776.16;4927512;28;55407;-51
2023/06/30 17:22:39;;;;;;;;;5.00;3.00;;;;;24.99;32.33;100793.84;4924040;28;45198;-53
2023/06/30 17:25:05;;;;;;;;;2.00;2.00;;;;;24.98;32.28;100783.38;4923407;28;45452;-46
2023/06/30 17:27:31;;;;;;;;;4.50;3.50;;;;;24.99;32.39;100793.84;4922887;28;45232;-49
2023/06/30 17:29:56;;;;;;;;;3.50;3.00;;;;;25.00;32.49;100798.19;4923243;28;45371;-48
2023/06/30 17:32:21;;;;;;;;;3.00;3.00;;;;;24.98;31.90;100789.50;4923555;28;45338;-49
2023/06/30 17:34:47;;;;;;;;;3.25;3.25;;;;;25.01;32.32;100794.59;4924210;28;45491;-47
2023/06/30 17:37:12;;;;;;;;;3.00;3.00;;;;;25.00;32.24;100795.53;4923744;28;47420;-50
2023/06/30 17:39:37;;;;;;;;;2.00;2.00;;;;;24.98;32.39;100786.84;4923331;28;45347;-47
2023/06/30 17:42:03;;;;;;;;;3.25;3.25;;;;;25.01;31.98;100788.44;4923207;28;48379;-45
2023/06/30 17:44:28;;;;;;;;;5.00;3.25;;;;;25.00;31.75;100792.88;4924059;28;45545;-45
2023/06/30 17:46:54;;;;;;;;;4.25;4.00;;;;;25.01;32.31;100786.63;4923539;28;58779;-45
2023/06/30 17:49:26;;;;;;;;;3.50;3.00;;;;;24.99;32.31;100777.94;4927869;28;45326;-50
2023/06/30 17:51:52;;;;;;;;;3.00;3.00;;;;;25.00;31.62;100784.94;4925056;28;45274;-46
2023/06/30 17:54:17;;;;;;;;;5.75;4.00;;;;;25.00;31.67;100787.59;4937227;28;45279;-48
2023/06/30 17:56:43;;;;;;;;;3.00;3.00;;;;;25.00;32.20;100779.63;4933689;28;46634;-52
2023/06/30 17:59:08;;;;;;;;;6.25;4.50;;;;;25.00;32.39;100792.88;4927723;28;45418;-51
2023/06/30 18:01:34;;;;;;;;;2.00;2.00;;;;;25.00;31.99;100789.41;4926693;28;45338;-49
2023/06/30 18:03:59;;;;;;;;;6.00;3.00;;;;;24.98;32.30;100786.03;4931532;28;45354;-50
2023/06/30 18:06:26;;;;;;;;;5.00;3.50;;;;;25.00;32.35;100798.19;4935213;28;61530;-47
2023/06/30 18:08:51;;;;;;;;;6.00;4.75;;;;;25.00;32.33;100790.25;4924523;28;45331;-48
2023/06/30 18:11:17;;;;;;;;;3.00;3.00;;;;;25.00;32.36;100787.59;4921541;28;45330;-48
2023/06/30 18:13:42;;;;;;;;;3.00;3.00;;;;;24.98;32.06;100791.31;4922103;28;45318;-50
2023/06/30 18:16:07;;;;;;;;;4.25;3.50;;;;;25.00;31.66;100795.53;4920688;28;47014;-44
2023/06/30 18:18:33;;;;;;;;;3.00;3.00;;;;;24.99;31.68;100791.19;4921840;28;45376;-48
2023/06/30 18:20:58;;;;;;;;;3.00;3.00;;;;;24.99;32.33;100793.03;4921948;28;45354;-49
2023/06/30 18:23:23;;;;;;;;;4.75;2.75;;;;;24.98;31.93;100784.19;4921734;28;45562;-50
2023/06/30 18:25:49;;;;;;;;;3.75;3.25;;;;;24.99;32.44;100785.91;4921834;28;51363;-47
2023/06/30 18:28:14;;;;;;;;;4.00;3.00;;;;;24.99;32.30;100787.72;4919622;28;46555;-47
2023/06/30 18:30:39;;;;;;;;;3.50;3.00;;;;;24.97;32.70;100790.47;4920968;28;45255;-47
2023/06/30 18:33:05;;;;;;;;;3.25;3.25;;;;;25.00;32.63;100790.25;4921812;28;45287;-49
2023/06/30 18:35:30;;;;;;;;;3.00;3.00;;;;;24.99;32.09;100785.91;4920983;28;46145;-50
2023/06/30 18:37:56;;;;;;;;;3.00;3.00;;;;;25.00;32.26;100778.81;4920864;28;45303;-49
2023/06/30 18:40:21;;;;;;;;;5.25;4.00;;;;;25.00;32.81;100776.16;4920604;28;45160;-46
2023/06/30 18:42:47;;;;;;;;;4.00;2.00;;;;;24.99;32.79;100785.91;4921043;28;45424;-50
2023/06/30 18:45:13;;;;;;;;;4.00;3.00;;;;;25.00;32.31;100773.50;4921165;28;47177;-49
2023/06/30 18:47:38;;;;;;;;;2.25;2.25;;;;;24.99;32.95;100785.91;4921441;28;45336;-51
2023/06/30 18:50:04;;;;;;;;;3.00;3.00;;;;;24.97;33.05;100782.50;4922313;28;45357;-50
2023/06/30 18:52:30;;;;;;;;;5.75;4.25;;;;;24.99;32.61;100788.53;4920197;28;45579;-51
2023/06/30 18:54:55;;;;;;;;;4.00;3.75;;;;;25.00;32.54;100792.88;4921670;28;45509;-47
2023/06/30 18:57:20;;;;;;;;;2.00;1.25;;;;;24.97;33.27;100787.81;4923101;28;45381;-50
2023/06/30 18:59:48;;;;;;;;;5.00;5.00;;;;;25.02;32.95;100790.16;4932907;28;44792;-47
2023/06/30 19:02:13;;;;;;;;;5.00;5.00;;;;;25.00;33.39;100795.53;4934712;28;45526;-48
2023/06/30 19:04:39;;;;;;;;;9.50;7.00;;;;;24.99;32.92;100785.91;4931298;28;46118;-47
2023/06/30 19:07:04;;;;;;;;;8.50;7.50;;;;;25.01;33.04;100788.44;4942247;28;45318;-46
2023/06/30 19:09:31;;;;;;;;;8.50;8.50;;;;;25.01;32.94;100783.16;4940511;28;44692;-50
2023/06/30 19:11:56;;;;;;;;;10.75;4.75;;;;;25.01;33.54;100788.44;4930488;28;45212;-53
2023/06/30 19:14:22;;;;;;;;;5.00;5.00;;;;;25.00;33.64;100792.06;4923065;28;46802;-50
2023/06/30 19:16:47;;;;;;;;;5.75;5.75;;;;;25.00;33.51;100789.41;4921834;28;45291;-53
2023/06/30 19:19:14;;;;;;;;;7.75;5.50;;;;;25.00;33.40;100789.41;4922325;28;45339;-48
2023/06/30 19:21:40;;;;;;;;;6.00;5.00;;;;;24.99;33.84;100796.50;4932597;28;45441;-49
2023/06/30 19:24:06;;;;;;;;;5.75;4.25;;;;;24.99;33.65;100793.84;4930896;28;45417;-48
2023/06/30 19:26:31;;;;;;;;;3.75;3.75;;;;;24.97;33.55;100793.13;4921836;28;45710;-49
2023/06/30 19:28:57;;;;;;;;;2.00;2.00;;;;;25.00;33.88;100802.66;4924467;28;45313;-49
2023/06/30 19:31:24;;;;;;;;;3.50;3.50;;;;;24.96;33.45;100791.44;4928779;28;45512;-53
2023/06/30 19:33:49;;;;;;;;;8.00;4.50;;;;;24.96;34.08;100801.19;4926604;28;47416;-52
2023/06/30 19:36:14;;;;;;;;;5.00;5.00;;;;;24.93;34.02;100791.66;4927207;28;45412;-51
2023/06/30 19:38:40;;;;;;;;;4.50;4.00;;;;;24.91;33.80;100788.28;4929345;28;45426;-51
2023/06/30 19:41:05;;;;;;;;;4.00;4.00;;;;;24.88;33.50;100791.16;4927954;28;45278;-49
2023/06/30 19:43:30;;;;;;;;;5.00;3.50;;;;;24.81;34.24;100793.41;4925474;28;57336;-56
2023/06/30 19:45:56;;;;;;;;;5.00;3.00;;;;;24.78;34.30;100804.28;4930148;28;64487;-48
2023/06/30 19:48:21;;;;;;;;;5.25;3.75;;;;;24.77;34.23;100807.00;4922001;28;45374;-52
2023/06/30 19:50:47;;;;;;;;;4.50;4.50;;;;;24.74;33.94;100801.97;4933316;28;45203;-49
2023/06/30 19:53:12;;;;;;;;;3.50;3.00;;;;;24.69;34.48;100811.09;4941550;28;45047;-51
2023/06/30 19:55:38;;;;;;;;;2.25;2.25;;;;;24.73;34.65;100811.69;4946397;28;44697;-49